.
WxDataArchive / Data Records for 2014-12-13
2014-12-12 December 2014 2014-12-14

Data Records for Saturday, 13 December 2014

Time	Temp	Chill	HIndex	Humid	Dewpt	 Wind 	HiWind	WindDir	Rain 	Barom
-----	----	-----	------	-----	-----	------	------	-------	-----	-----
00:00	31.0	31.0	31.0	94	29.5	0	1	315	0.00	30.277 
00:05	31.2	31.2	31.2	94	29.7	0	2	315	0.00	30.277 
00:10	31.3	31.3	31.3	94	29.8	0	2	315	0.00	30.277 
00:15	31.3	31.3	31.3	94	29.8	0	2	315	0.00	30.264 
00:20	31.5	31.5	31.5	94	30.0	0	2	315	0.00	30.264 
00:25	31.6	31.6	31.6	94	30.1	0	2	315	0.00	30.264 
00:30	31.6	31.6	31.6	94	30.1	0	2	315	0.00	30.263 
00:35	31.8	31.8	31.8	94	30.3	0	2	315	0.00	30.263 
00:40	31.8	31.8	31.8	94	30.3	0	1	315	0.00	30.263 
00:45	31.9	31.9	31.9	94	30.4	1	4	270	0.00	30.262 
00:50	32.1	32.1	32.1	94	30.6	1	2	270	0.00	30.262 
00:55	32.1	32.1	32.1	94	30.6	0	2	270	0.00	30.262 
01:00	32.2	32.2	32.2	94	30.7	0	2	270	0.00	30.256 
01:05	32.2	32.2	32.2	94	30.7	1	3	270	0.00	30.256 
01:10	32.4	32.4	32.4	94	30.9	0	2	270	0.00	30.256 
01:15	32.4	32.4	32.4	94	30.9	1	3	270	0.00	30.256 
01:20	32.5	32.5	32.5	94	31.0	0	2	270	0.00	30.256 
01:25	32.5	32.5	32.5	94	31.0	0	3	270	0.00	30.256 
01:30	32.7	32.7	32.7	95	31.4	1	4	315	0.00	30.260 
01:35	32.7	32.7	32.7	95	31.4	1	3	292	0.00	30.260 
01:40	32.8	32.8	32.8	95	31.5	0	3	292	0.00	30.260 
01:45	32.8	32.8	32.8	95	31.5	1	3	315	0.00	30.254 
01:50	32.9	32.9	32.9	95	31.6	1	2	315	0.00	30.254 
01:55	32.9	32.9	32.9	95	31.6	0	2	292	0.00	30.254 
02:00	33.1	33.1	33.1	95	31.8	0	1	292	0.00	30.249 
02:05	33.1	33.1	33.1	95	31.8	0	2	292	0.00	30.249 
02:10	33.1	33.1	33.1	95	31.8	1	2	270	0.00	30.249 
02:15	33.2	33.2	33.2	95	31.9	0	2	270	0.00	30.246 
02:20	33.2	33.2	33.2	95	31.9	0	1	270	0.00	30.246 
02:25	33.2	33.2	33.2	95	31.9	0	2	270	0.00	30.246 
02:30	33.4	33.4	33.4	95	32.1	0	2	270	0.00	30.246 
02:35	33.4	33.4	33.4	95	32.1	0	1	270	0.00	30.246 
02:40	33.5	33.5	33.5	95	32.2	0	2	270	0.00	30.246 
02:45	33.5	33.5	33.5	95	32.2	0	1	270	0.00	30.250 
02:50	33.5	33.5	33.5	95	32.2	0	1	270	0.00	30.250 
02:55	33.5	33.5	33.5	95	32.2	0	0	---	0.00	30.250 
03:00	33.7	33.7	33.7	95	32.4	0	1	270	0.00	30.247 
03:05	33.7	33.7	33.7	95	32.4	0	1	270	0.00	30.247 
03:10	33.7	33.7	33.7	95	32.4	0	1	270	0.00	30.247 
03:15	33.7	33.7	33.7	95	32.4	0	1	270	0.00	30.245 
03:20	33.7	33.7	33.7	95	32.4	0	1	270	0.00	30.245 
03:25	33.7	33.7	33.7	95	32.4	0	1	270	0.00	30.245 
03:30	33.7	33.7	33.7	94	32.2	0	1	270	0.00	30.243 
03:35	33.7	33.7	33.7	94	32.2	0	3	270	0.00	30.243 
03:40	33.8	33.8	33.8	94	32.3	0	2	270	0.00	30.243 
03:45	33.8	33.8	33.8	94	32.3	0	3	270	0.00	30.236 
03:50	33.8	33.8	33.8	94	32.3	0	2	270	0.00	30.236 
03:55	33.7	33.7	33.7	94	32.2	0	2	270	0.00	30.236 
04:00	33.7	33.7	33.7	94	32.2	1	4	270	0.00	30.232 
04:05	33.7	33.7	33.7	94	32.2	0	3	248	0.00	30.232 
04:10	33.7	33.7	33.7	94	32.2	1	3	248	0.00	30.232 
04:15	33.7	33.7	33.7	94	32.2	1	4	270	0.00	30.232 
04:20	33.7	33.7	33.7	94	32.2	1	2	270	0.00	30.232 
04:25	33.5	33.5	33.5	94	32.0	2	6	270	0.00	30.232 
04:30	33.5	33.5	33.5	94	32.0	0	3	292	0.00	30.232 
04:35	33.5	33.5	33.5	94	32.0	0	2	292	0.00	30.232 
04:40	33.5	33.5	33.5	94	32.0	0	2	292	0.00	30.232 
04:45	33.7	33.7	33.7	94	32.2	1	3	292	0.00	30.232 
04:50	33.7	33.7	33.7	94	32.2	1	3	292	0.00	30.232 
04:55	33.8	33.8	33.8	94	32.3	0	3	292	0.00	30.232 
05:00	33.8	33.8	33.8	94	32.3	1	3	292	0.00	30.222 
05:05	34.0	34.0	34.0	94	32.5	0	3	292	0.00	30.222 
05:10	34.0	34.0	34.0	94	32.5	0	2	292	0.00	30.222 
05:15	34.1	34.1	34.1	94	32.6	0	2	292	0.00	30.229 
05:20	34.1	34.1	34.1	94	32.6	1	4	292	0.00	30.229 
05:25	34.3	34.3	34.3	94	32.8	2	4	292	0.00	30.229 
05:30	34.3	34.3	34.3	94	32.8	0	3	270	0.00	30.224 
05:35	34.3	34.3	34.3	94	32.8	1	3	315	0.00	30.224 
05:40	34.4	34.4	34.4	94	32.9	0	3	248	0.00	30.224 
05:45	34.4	34.4	34.4	94	32.9	1	3	248	0.00	30.229 
05:50	34.6	34.6	34.6	94	33.1	0	5	292	0.00	30.229 
05:55	34.6	34.6	34.6	94	33.1	1	3	292	0.00	30.229 
06:00	34.7	34.7	34.7	94	33.2	1	3	292	0.00	30.229 
06:05	34.7	34.7	34.7	94	33.2	0	3	292	0.00	30.229 
06:10	34.7	34.7	34.7	94	33.2	0	2	292	0.00	30.229 
06:15	34.7	34.7	34.7	94	33.2	0	3	315	0.00	30.237 
06:20	34.9	34.9	34.9	94	33.4	0	1	315	0.00	30.237 
06:25	34.9	34.9	34.9	94	33.4	0	1	315	0.00	30.237 
06:30	34.9	34.9	34.9	94	33.4	0	2	315	0.00	30.228 
06:35	35.0	35.0	35.0	94	33.5	0	2	315	0.00	30.228 
06:40	35.0	35.0	35.0	94	33.5	0	2	315	0.00	30.228 
06:45	35.0	35.0	35.0	94	33.5	0	3	315	0.00	30.232 
06:50	35.2	35.2	35.2	94	33.6	0	3	315	0.00	30.232 
06:55	35.2	35.2	35.2	94	33.6	0	1	315	0.00	30.232 
07:00	35.2	35.2	35.2	94	33.6	0	2	315	0.00	30.229 
07:05	35.2	35.2	35.2	94	33.6	0	2	315	0.00	30.229 
07:10	35.3	35.3	35.3	94	33.7	0	2	315	0.00	30.229 
07:15	35.3	35.3	35.3	94	33.7	0	2	315	0.00	30.228 
07:20	35.5	35.5	35.5	94	33.9	1	3	315	0.00	30.228 
07:25	35.5	35.5	35.5	94	33.9	0	1	292	0.00	30.228 
07:30	35.5	35.5	35.5	94	33.9	0	3	292	0.00	30.230 
07:35	35.5	35.5	35.5	94	33.9	0	2	315	0.00	30.230 
07:40	35.6	35.6	35.6	94	34.0	1	5	315	0.00	30.230 
07:45	35.6	35.6	35.6	94	34.0	1	5	315	0.00	30.228 
07:50	35.8	35.8	35.8	94	34.2	1	4	338	0.00	30.228 
07:55	35.8	35.8	35.8	94	34.2	1	4	248	0.00	30.228 
08:00	35.8	35.8	35.8	94	34.2	1	3	248	0.00	30.226 
08:05	35.8	35.8	35.8	94	34.2	0	3	248	0.00	30.226 
08:10	35.8	35.8	35.8	94	34.2	0	2	248	0.00	30.226 
08:15	35.8	35.8	35.8	94	34.2	0	1	248	0.00	30.218 
08:20	35.8	35.8	35.8	94	34.2	0	1	248	0.00	30.218 
08:25	35.8	35.8	35.8	94	34.2	0	1	248	0.00	30.218 
08:30	35.9	35.9	35.9	94	34.3	0	1	248	0.00	30.227 
08:35	35.9	35.9	35.9	94	34.3	0	2	248	0.00	30.227 
08:40	35.9	35.9	35.9	94	34.3	0	1	248	0.00	30.227 
08:45	35.9	35.9	35.9	94	34.3	0	1	248	0.00	30.225 
08:50	35.9	35.9	35.9	94	34.3	0	1	248	0.00	30.225 
08:55	35.9	35.9	35.9	94	34.3	0	0	---	0.00	30.225 
09:00	35.8	35.8	35.8	94	34.2	0	0	---	0.00	30.228 
09:05	35.8	35.8	35.8	94	34.2	0	1	248	0.00	30.228 
09:10	35.8	35.8	35.8	94	34.2	0	2	248	0.00	30.228 
09:15	35.8	35.8	35.8	94	34.2	0	2	248	0.00	30.228 
09:20	35.8	35.8	35.8	94	34.2	0	2	248	0.00	30.228 
09:25	35.8	35.8	35.8	94	34.2	0	1	248	0.00	30.228 
09:30	35.8	35.8	35.8	94	34.2	0	1	248	0.00	30.230 
09:35	35.8	35.8	35.8	94	34.2	0	1	248	0.00	30.230 
09:40	35.8	35.8	35.8	94	34.2	0	2	248	0.00	30.230 
09:45	35.9	35.9	35.9	94	34.3	0	2	248	0.00	30.241 
09:50	35.9	35.9	35.9	94	34.3	0	2	248	0.00	30.241 
09:55	35.9	35.9	35.9	94	34.3	0	3	248	0.00	30.241 
10:00	35.9	35.9	35.9	94	34.3	0	2	248	0.00	30.244 
10:05	36.0	36.0	36.0	94	34.4	0	1	248	0.00	30.244 
10:10	36.2	36.2	36.2	94	34.6	0	2	248	0.00	30.244 
10:15	36.3	36.3	36.3	94	34.7	0	1	248	0.00	30.241 
10:20	36.5	36.5	36.5	93	34.7	0	2	248	0.00	30.241 
10:25	36.6	36.6	36.6	93	34.8	0	2	248	0.00	30.241 
10:30	36.9	36.9	36.9	93	35.1	0	1	248	0.00	30.239 
10:35	36.9	36.9	36.9	93	35.1	0	2	248	0.00	30.239 
10:40	37.0	37.0	37.0	93	35.2	0	2	248	0.00	30.239 
10:45	37.2	37.2	37.2	93	35.4	0	2	248	0.00	30.235 
10:50	37.3	37.3	37.3	93	35.5	0	2	248	0.00	30.235 
10:55	37.5	37.5	37.5	92	35.4	1	3	248	0.00	30.235 
11:00	37.6	37.6	37.6	92	35.5	0	2	248	0.00	30.222 
11:05	37.8	37.8	37.8	92	35.7	0	2	248	0.00	30.222 
11:10	37.9	37.9	37.9	92	35.8	0	1	248	0.00	30.222 
11:15	38.0	38.0	38.0	91	35.6	0	2	248	0.00	30.217 
11:20	38.2	38.2	38.2	91	35.8	0	1	248	0.00	30.217 
11:25	38.3	38.3	38.3	91	35.9	0	2	248	0.00	30.217 
11:30	38.6	38.6	38.6	91	36.2	0	2	248	0.00	30.205 
11:35	38.9	38.9	38.9	90	36.2	0	2	248	0.00	30.205 
11:40	39.2	39.2	39.2	90	36.5	0	2	248	0.00	30.205 
11:45	39.5	39.5	39.5	89	36.5	0	3	248	0.00	30.197 
11:50	39.8	39.8	39.8	88	36.5	1	3	248	0.00	30.197 
11:55	39.9	39.9	39.9	88	36.6	1	3	248	0.00	30.197 
12:00	40.1	40.1	40.1	87	36.5	1	3	248	0.00	30.188 
12:05	40.3	40.3	40.3	87	36.7	1	3	248	0.00	30.188 
12:10	40.8	40.8	40.8	86	36.9	0	2	248	0.00	30.188 
12:15	40.9	40.9	40.9	86	37.0	1	3	248	0.00	30.182 
12:20	40.9	40.9	40.9	85	36.7	1	3	248	0.00	30.182 
12:25	40.9	40.9	40.9	85	36.7	1	3	248	0.00	30.182 
12:30	40.9	40.9	40.9	84	36.4	1	3	248	0.00	30.173 
12:35	40.9	40.9	40.9	85	36.7	1	3	248	0.00	30.173 
12:40	40.9	40.9	40.9	85	36.7	1	5	248	0.00	30.173 
12:45	41.1	41.1	41.1	85	36.9	1	3	270	0.00	30.166 
12:50	41.3	41.3	41.3	85	37.1	1	3	270	0.00	30.166 
12:55	41.5	41.5	41.5	85	37.3	1	4	270	0.00	30.166 
13:00	41.6	41.6	41.6	84	37.1	1	2	270	0.00	30.155 
13:05	41.6	41.6	41.6	84	37.1	1	4	270	0.00	30.155 
13:10	41.8	41.8	41.8	85	37.6	1	2	270	0.00	30.155 
13:15	41.9	41.9	41.9	84	37.4	0	3	270	0.00	30.148 
13:20	41.9	41.9	41.9	84	37.4	1	2	270	0.00	30.148 
13:25	42.1	42.1	42.1	84	37.6	0	2	270	0.00	30.148 
13:30	42.3	42.3	42.3	85	38.1	0	2	270	0.00	30.147 
13:35	42.5	42.5	42.5	85	38.3	1	3	270	0.00	30.147 
13:40	42.6	42.6	42.6	85	38.4	1	3	270	0.00	30.147 
13:45	42.6	42.6	42.6	85	38.4	2	4	270	0.00	30.137 
13:50	42.6	42.6	42.6	85	38.4	1	3	270	0.00	30.137 
13:55	42.6	42.6	42.6	85	38.4	1	3	292	0.00	30.137 
14:00	42.9	42.9	42.9	85	38.7	0	3	248	0.00	30.133 
14:05	42.9	42.9	42.9	85	38.7	1	3	248	0.00	30.133 
14:10	43.1	43.1	43.1	85	38.9	1	3	248	0.00	30.133 
14:15	43.1	43.1	43.1	85	38.9	1	4	292	0.00	30.131 
14:20	43.2	43.2	43.2	85	39.0	1	3	292	0.00	30.131 
14:25	43.5	43.5	43.5	85	39.3	0	1	292	0.00	30.131 
14:30	43.6	43.6	43.6	85	39.4	1	4	248	0.00	30.124 
14:35	43.8	43.8	43.8	85	39.6	1	4	248	0.00	30.124 
14:40	43.9	43.9	43.9	85	39.7	1	3	270	0.00	30.124 
14:45	43.9	43.9	43.9	84	39.4	2	4	270	0.00	30.120 
14:50	43.9	43.9	43.9	84	39.4	1	4	270	0.00	30.120 
14:55	44.1	44.1	44.1	84	39.6	1	3	270	0.00	30.120 
15:00	44.2	44.2	44.2	84	39.7	0	2	270	0.00	30.119 
15:05	44.5	44.5	44.5	84	40.0	0	1	270	0.00	30.119 
15:10	44.6	44.6	44.6	83	39.8	1	4	248	0.00	30.119 
15:15	44.8	44.8	44.8	83	40.0	1	4	248	0.00	30.109 
15:20	45.1	45.1	45.1	82	39.9	1	4	270	0.00	30.109 
15:25	45.2	45.2	45.2	82	40.0	0	2	270	0.00	30.109 
15:30	45.4	45.4	45.4	82	40.2	1	4	270	0.00	30.107 
15:35	45.4	45.4	45.4	81	39.9	1	2	270	0.00	30.107 
15:40	45.5	45.5	45.5	81	40.0	1	3	270	0.00	30.107 
15:45	45.5	45.5	45.5	81	40.0	0	3	270	0.00	30.109 
15:50	45.7	45.7	45.7	81	40.2	0	2	270	0.00	30.109 
15:55	45.5	45.5	45.5	81	40.0	1	4	248	0.00	30.109 
16:00	45.5	45.5	45.5	81	40.0	1	3	248	0.00	30.104 
16:05	45.7	45.7	45.7	81	40.2	0	3	248	0.00	30.104 
16:10	45.8	45.8	45.8	81	40.3	1	4	248	0.00	30.104 
16:15	45.8	45.8	45.8	80	40.0	1	4	248	0.00	30.104 
16:20	45.8	45.8	45.8	80	40.0	1	4	248	0.00	30.104 
16:25	45.7	45.7	45.7	80	39.9	1	3	248	0.00	30.104 
16:30	45.7	45.7	45.7	80	39.9	1	5	270	0.00	30.104 
16:35	45.5	45.5	45.5	80	39.7	1	3	270	0.00	30.104 
16:40	45.4	45.4	45.4	80	39.6	0	3	270	0.00	30.104 
16:45	45.2	45.2	45.2	80	39.4	0	3	270	0.00	30.105 
16:50	45.1	45.1	45.1	81	39.6	1	4	248	0.00	30.105 
16:55	44.9	44.9	44.9	81	39.4	1	4	248	0.00	30.105 
17:00	44.8	44.8	44.8	81	39.3	0	2	248	0.00	30.105 
17:05	44.5	44.5	44.5	81	39.0	0	3	248	0.00	30.105 
17:10	44.5	44.5	44.5	81	39.0	1	3	248	0.00	30.105 
17:15	44.2	44.2	44.2	81	38.7	0	2	248	0.00	30.108 
17:20	44.1	44.1	44.1	81	38.6	0	3	248	0.00	30.108 
17:25	43.9	43.9	43.9	81	38.5	0	2	248	0.00	30.108 
17:30	43.6	43.6	43.6	82	38.5	0	2	248	0.00	30.113 
17:35	43.5	43.5	43.5	82	38.4	0	2	248	0.00	30.113 
17:40	43.3	43.3	43.3	82	38.2	0	2	248	0.00	30.113 
17:45	43.3	43.3	43.3	82	38.2	0	1	248	0.00	30.120 
17:50	43.3	43.3	43.3	83	38.5	0	3	248	0.00	30.120 
17:55	43.5	43.5	43.5	82	38.4	0	3	270	0.00	30.120 
18:00	43.6	43.6	43.6	82	38.5	0	3	270	0.00	30.120 
18:05	43.8	43.8	43.8	82	38.7	0	3	270	0.00	30.120 
18:10	43.9	43.9	43.9	81	38.5	1	3	270	0.00	30.120 
18:15	44.1	44.1	44.1	81	38.6	0	2	270	0.00	30.119 
18:20	44.1	44.1	44.1	81	38.6	0	3	270	0.00	30.119 
18:25	44.2	44.2	44.2	81	38.7	0	2	270	0.00	30.119 
18:30	44.2	44.2	44.2	81	38.7	1	3	270	0.00	30.119 
18:35	44.3	44.3	44.3	81	38.8	0	2	270	0.00	30.119 
18:40	44.5	44.5	44.5	81	39.0	0	1	270	0.00	30.119 
18:45	44.5	44.5	44.5	81	39.0	0	2	270	0.00	30.119 
18:50	44.5	44.5	44.5	81	39.0	0	2	270	0.00	30.119 
18:55	44.6	44.6	44.6	81	39.1	0	3	270	0.00	30.119 
19:00	44.6	44.6	44.6	81	39.1	0	3	270	0.00	30.121 
19:05	44.8	44.8	44.8	81	39.3	1	3	270	0.00	30.121 
19:10	44.8	44.8	44.8	81	39.3	0	2	270	0.00	30.121 
19:15	44.8	44.8	44.8	81	39.3	0	3	270	0.00	30.126 
19:20	44.9	44.9	44.9	81	39.4	1	4	270	0.00	30.126 
19:25	44.9	44.9	44.9	81	39.4	0	2	270	0.00	30.126 
19:30	44.9	44.9	44.9	81	39.4	0	2	270	0.00	30.126 
19:35	44.9	44.9	44.9	81	39.4	1	3	270	0.00	30.126 
19:40	45.1	45.1	45.1	81	39.6	1	2	270	0.00	30.126 
19:45	45.1	45.1	45.1	81	39.6	1	3	270	0.00	30.130 
19:50	44.9	44.9	44.9	81	39.4	1	3	270	0.00	30.130 
19:55	44.9	44.9	44.9	81	39.4	1	3	270	0.00	30.130 
20:00	44.8	44.8	44.8	81	39.3	0	2	270	0.00	30.131 
20:05	44.8	44.8	44.8	82	39.6	1	3	270	0.00	30.131 
20:10	44.6	44.6	44.6	82	39.4	0	2	270	0.00	30.131 
20:15	44.6	44.6	44.6	82	39.4	1	3	270	0.00	30.129 
20:20	44.6	44.6	44.6	83	39.8	1	3	248	0.00	30.129 
20:25	44.5	44.5	44.5	84	40.0	1	3	248	0.00	30.129 
20:30	44.3	44.3	44.3	84	39.8	1	4	248	0.00	30.121 
20:35	44.3	44.3	44.3	84	39.8	0	2	248	0.00	30.121 
20:40	44.3	44.3	44.3	84	39.8	0	3	248	0.00	30.121 
20:45	44.3	44.3	44.3	85	40.1	1	3	248	0.00	30.118 
20:50	44.2	44.2	44.2	85	40.0	0	2	248	0.00	30.118 
20:55	44.2	44.2	44.2	85	40.0	0	2	248	0.00	30.118 
21:00	44.2	44.2	44.2	85	40.0	0	3	248	0.00	30.118 
21:05	44.2	44.2	44.2	84	39.7	0	3	248	0.00	30.118 
21:10	44.2	44.2	44.2	84	39.7	0	3	248	0.00	30.118 
21:15	44.2	44.2	44.2	84	39.7	0	3	248	0.00	30.117 
21:20	44.2	44.2	44.2	84	39.7	0	2	248	0.00	30.117 
21:25	44.2	44.2	44.2	84	39.7	1	3	248	0.00	30.117 
21:30	44.2	44.2	44.2	84	39.7	1	3	248	0.00	30.115 
21:35	44.2	44.2	44.2	84	39.7	1	4	248	0.00	30.115 
21:40	44.2	44.2	44.2	84	39.7	1	4	270	0.00	30.115 
21:45	44.2	44.2	44.2	84	39.7	0	3	270	0.00	30.103 
21:50	44.2	44.2	44.2	84	39.7	1	5	270	0.00	30.103 
21:55	44.2	44.2	44.2	84	39.7	1	4	248	0.00	30.103 
22:00	44.2	44.2	44.2	84	39.7	0	2	248	0.00	30.101 
22:05	44.2	44.2	44.2	84	39.7	1	4	248	0.00	30.101 
22:10	44.2	44.2	44.2	84	39.7	1	3	248	0.00	30.101 
22:15	44.2	44.2	44.2	84	39.7	0	2	248	0.00	30.098 
22:20	44.3	44.3	44.3	84	39.8	0	2	248	0.00	30.098 
22:25	44.3	44.3	44.3	84	39.8	1	3	248	0.00	30.098 
22:30	44.5	44.5	44.5	84	40.0	1	4	248	0.00	30.099 
22:35	44.5	44.5	44.5	83	39.7	1	2	248	0.00	30.099 
22:40	44.5	44.5	44.5	83	39.7	1	4	248	0.00	30.099 
22:45	44.5	44.5	44.5	83	39.7	1	4	248	0.00	30.098 
22:50	44.5	44.5	44.5	83	39.7	1	3	248	0.00	30.098 
22:55	44.5	44.5	44.5	83	39.7	1	4	248	0.00	30.098 
23:00	44.5	44.5	44.5	83	39.7	0	3	248	0.00	30.091 
23:05	44.5	44.5	44.5	83	39.7	0	2	248	0.00	30.091 
23:10	44.6	44.6	44.6	84	40.1	1	4	248	0.00	30.091 
23:15	44.6	44.6	44.6	84	40.1	1	3	248	0.00	30.088 
23:20	44.6	44.6	44.6	83	39.8	0	2	248	0.00	30.088 
23:25	44.8	44.8	44.8	83	40.0	0	2	248	0.00	30.088 
23:30	44.8	44.8	44.8	83	40.0	1	3	248	0.00	30.084 
23:35	44.8	44.8	44.8	83	40.0	0	2	248	0.00	30.084 
23:40	44.9	44.9	44.9	83	40.1	0	3	248	0.00	30.084 
23:45	44.9	44.9	44.9	83	40.1	0	2	248	0.00	30.082 
23:50	44.9	44.9	44.9	83	40.1	0	2	248	0.00	30.082 
23:55	45.1	45.1	45.1	83	40.3	0	2	248	0.00	30.082 

CoCoRaHS
IN-AL-39
A2 Web Hosting
Creative Commons License
GoDaddy
search engine by freefind advanced

loaded 2018-11-15 18:12:30 • last modified 2010-11-18 10:43:29
Privacy PolicyDisclaimer
• wx.awcolley.com is powered by PmWiki v.2002016 •
• all content (unless otherwise noted) © 2018 A W Colley